createdAt,value
2017-08-14T00:02:07.399Z,95.20
2017-08-14T00:04:35.976Z,95.30
2017-08-14T00:07:03.480Z,95.40
2017-08-14T00:09:34.523Z,95.30
2017-08-14T00:12:02.043Z,95.30
2017-08-14T00:14:29.554Z,95.30
2017-08-14T00:16:57.116Z,95.30
2017-08-14T00:19:24.994Z,95.30
2017-08-14T00:21:52.520Z,95.20
2017-08-14T00:24:24.019Z,95.30
2017-08-14T00:26:51.519Z,95.40
2017-08-14T00:29:19.530Z,95.30
2017-08-14T00:31:47.047Z,95.30
2017-08-14T00:34:14.561Z,95.40
2017-08-14T00:36:46.480Z,95.50
2017-08-14T00:39:14.023Z,95.50
2017-08-14T00:41:41.536Z,95.50
2017-08-14T00:44:09.057Z,95.40
2017-08-14T00:46:37.439Z,95.30
2017-08-14T00:49:04.948Z,95.30
2017-08-14T00:51:33.021Z,95.40
2017-08-14T00:54:03.910Z,95.50
2017-08-14T00:56:31.439Z,95.50
2017-08-14T00:58:59.723Z,95.50
2017-08-14T01:01:27.223Z,95.40
2017-08-14T01:03:54.723Z,95.50
2017-08-14T01:06:22.995Z,95.60
2017-08-14T01:08:50.491Z,95.60
2017-08-14T01:11:18.007Z,95.60
2017-08-14T01:13:45.525Z,95.60
2017-08-14T01:16:13.036Z,95.50
2017-08-14T01:18:40.590Z,95.50
2017-08-14T01:21:09.652Z,95.50
2017-08-14T01:23:37.167Z,95.60
2017-08-14T01:26:05.435Z,96.00
2017-08-14T01:28:32.967Z,96.00
2017-08-14T01:31:00.467Z,96.20
2017-08-14T01:33:27.963Z,96.30
2017-08-14T01:35:55.459Z,96.40
2017-08-14T01:38:22.969Z,96.30
2017-08-14T01:40:50.475Z,96.30
2017-08-14T01:43:18.132Z,96.40
2017-08-14T01:45:45.655Z,96.90
2017-08-14T01:48:13.155Z,97.30
2017-08-14T01:50:40.655Z,97.30
2017-08-14T01:53:09.056Z,97.30
2017-08-14T01:55:39.996Z,97.10
2017-08-14T01:58:08.897Z,97.10
2017-08-14T02:00:36.405Z,96.90
2017-08-14T02:03:05.244Z,97.10
2017-08-14T02:05:32.767Z,97.00
2017-08-14T02:08:01.113Z,97.30
2017-08-14T02:10:28.636Z,97.80
2017-08-14T02:12:56.161Z,97.60
2017-08-14T02:15:23.673Z,97.50
2017-08-14T02:17:51.180Z,97.40
2017-08-14T02:20:18.719Z,97.20
2017-08-14T02:22:46.219Z,97.10
2017-08-14T02:25:16.147Z,97.20
2017-08-14T02:27:43.651Z,97.30
2017-08-14T02:30:11.968Z,97.40
2017-08-14T02:32:39.480Z,97.20
2017-08-14T02:35:07.535Z,97.20
2017-08-14T02:37:35.039Z,97.30
2017-08-14T02:40:02.583Z,97.30
2017-08-14T02:42:30.083Z,97.40
2017-08-14T02:44:57.613Z,97.40
2017-08-14T02:47:25.122Z,97.40
2017-08-14T02:49:52.620Z,97.40
2017-08-14T02:52:20.899Z,97.20
2017-08-14T02:54:48.515Z,97.20
2017-08-14T02:57:16.023Z,97.30
2017-08-14T02:59:43.525Z,97.30
2017-08-14T03:02:11.040Z,97.30
2017-08-14T03:04:38.543Z,97.30
2017-08-14T03:07:06.043Z,97.30
2017-08-14T03:09:33.559Z,97.30
2017-08-14T03:12:01.176Z,97.30
2017-08-14T03:14:28.683Z,97.30
2017-08-14T03:16:56.279Z,97.30
2017-08-14T03:19:23.789Z,97.10
2017-08-14T03:21:51.288Z,97.20
2017-08-14T03:24:23.461Z,97.20
2017-08-14T03:26:50.980Z,97.10
2017-08-14T03:29:18.498Z,96.80
2017-08-14T03:31:46.041Z,96.90
2017-08-14T03:34:13.824Z,97.00
2017-08-14T03:36:41.379Z,97.20
2017-08-14T03:39:09.920Z,97.30
2017-08-14T03:41:37.427Z,97.30
2017-08-14T03:44:04.923Z,97.20
2017-08-14T03:46:32.463Z,97.30
2017-08-14T03:49:00.778Z,97.40
2017-08-14T03:51:28.560Z,97.40
2017-08-14T03:53:56.055Z,97.40
2017-08-14T03:56:27.043Z,97.20
2017-08-14T03:58:54.548Z,97.30
2017-08-14T04:01:22.171Z,97.40
2017-08-14T04:03:49.680Z,97.40
2017-08-14T04:06:17.211Z,97.50
2017-08-14T04:08:45.647Z,97.60
2017-08-14T04:11:13.152Z,97.60
2017-08-14T04:13:40.735Z,97.50
2017-08-14T04:16:11.151Z,97.40
2017-08-14T04:18:38.704Z,97.20
2017-08-14T04:21:06.236Z,97.10
2017-08-14T04:23:33.742Z,97.10
2017-08-14T04:26:01.317Z,97.30
2017-08-14T04:28:29.583Z,97.10
2017-08-14T04:30:57.158Z,97.10
2017-08-14T04:33:24.723Z,97.10
2017-08-14T04:35:52.343Z,97.10
2017-08-14T04:38:19.843Z,97.00
2017-08-14T04:40:47.479Z,96.80
2017-08-14T04:43:15.037Z,96.60
2017-08-14T04:45:42.543Z,96.50
2017-08-14T04:48:10.086Z,96.70
2017-08-14T04:50:37.589Z,96.70
2017-08-14T04:53:05.148Z,96.70
2017-08-14T04:55:32.683Z,96.70
2017-08-14T04:58:00.254Z,96.60
2017-08-14T05:00:27.763Z,96.40
2017-08-14T05:02:55.433Z,96.30
2017-08-14T05:05:22.943Z,96.20
2017-08-14T05:07:50.439Z,96.10
2017-08-14T05:10:18.023Z,96.30
2017-08-14T05:12:45.552Z,95.90
2017-08-14T05:15:13.079Z,95.90
2017-08-14T05:17:40.636Z,95.80
2017-08-14T05:20:08.211Z,95.90
2017-08-14T05:22:35.766Z,95.60
2017-08-14T05:25:03.312Z,95.30
2017-08-14T05:27:30.816Z,95.00
2017-08-14T05:29:58.832Z,94.80
2017-08-14T05:32:26.371Z,94.90
2017-08-14T05:34:54.647Z,95.10
2017-08-14T05:37:22.235Z,95.10
2017-08-14T05:39:49.795Z,95.00
2017-08-14T05:42:17.357Z,94.80
2017-08-14T05:44:44.887Z,94.80
2017-08-14T05:47:13.168Z,94.90
2017-08-14T05:49:40.785Z,94.90
2017-08-14T05:52:09.464Z,94.80
2017-08-14T05:54:36.968Z,92.80
2017-08-14T05:57:04.527Z,91.70
2017-08-14T05:59:32.050Z,91.20
2017-08-14T06:01:59.570Z,91.00
2017-08-14T06:04:27.888Z,91.30
2017-08-14T06:06:55.415Z,91.30
2017-08-14T06:09:22.962Z,91.70
2017-08-14T06:11:53.646Z,91.40
2017-08-14T06:14:21.336Z,90.70
2017-08-14T06:16:48.860Z,90.70
2017-08-14T06:19:16.427Z,89.90
2017-08-14T06:21:44.015Z,90.10
2017-08-14T06:24:11.522Z,89.10
2017-08-14T06:26:39.584Z,89.90
2017-08-14T06:29:07.120Z,89.70
2017-08-14T06:31:35.406Z,90.00
2017-08-14T06:34:02.903Z,89.40
2017-08-14T06:36:30.496Z,90.00
2017-08-14T06:38:58.058Z,89.60
2017-08-14T06:41:25.652Z,89.60
2017-08-14T06:43:53.928Z,89.60
2017-08-14T06:46:22.332Z,89.60
2017-08-14T06:48:49.843Z,90.50
2017-08-14T06:51:17.384Z,90.10
2017-08-14T06:53:44.933Z,90.20
2017-08-14T06:56:12.431Z,89.60
2017-08-14T06:58:39.975Z,88.20
2017-08-14T07:01:07.499Z,88.40
2017-08-14T07:03:35.010Z,87.70
2017-08-14T07:06:02.604Z,87.60
2017-08-14T07:08:30.099Z,87.60
2017-08-14T07:10:57.656Z,86.50
2017-08-14T07:13:25.177Z,84.60
2017-08-14T07:15:52.700Z,85.50
2017-08-14T07:18:20.239Z,83.50
2017-08-14T07:20:48.715Z,83.00
2017-08-14T07:23:16.228Z,83.60
2017-08-14T07:25:43.741Z,82.60
2017-08-14T07:28:14.358Z,81.60
2017-08-14T07:30:41.864Z,81.50
2017-08-14T07:33:09.372Z,80.80
2017-08-14T07:35:36.907Z,80.70
2017-08-14T07:38:04.451Z,78.30
2017-08-14T07:40:31.977Z,77.00
2017-08-14T07:43:03.551Z,76.30
2017-08-14T07:45:31.084Z,74.80
2017-08-14T07:47:58.599Z,73.40
2017-08-14T07:50:26.144Z,70.40
2017-08-14T07:52:54.463Z,69.10
2017-08-14T07:55:21.956Z,69.00
2017-08-14T07:57:49.528Z,69.30
2017-08-14T08:00:17.727Z,69.70
2017-08-14T08:02:45.235Z,68.00
2017-08-14T08:05:12.811Z,65.90
2017-08-14T08:07:40.307Z,60.40
2017-08-14T08:10:07.903Z,58.90
2017-08-14T08:12:35.443Z,57.30
2017-08-14T08:15:06.512Z,58.30
2017-08-14T08:17:34.007Z,58.60
2017-08-14T08:20:02.004Z,57.20
2017-08-14T08:22:29.531Z,58.80
2017-08-14T08:24:57.031Z,59.00
2017-08-14T08:27:24.563Z,62.90
2017-08-14T08:29:52.116Z,65.90
2017-08-14T08:32:19.689Z,65.70
2017-08-14T08:34:47.229Z,61.10
2017-08-14T08:37:14.764Z,56.20
2017-08-14T08:39:42.373Z,50.60
2017-08-14T08:42:12.842Z,48.00
2017-08-14T08:44:43.383Z,48.00
2017-08-14T08:47:10.930Z,48.70
2017-08-14T08:49:38.567Z,44.80
2017-08-14T08:52:06.067Z,45.00
2017-08-14T08:54:33.622Z,45.30
2017-08-14T08:57:01.507Z,43.30
2017-08-14T08:59:29.039Z,43.60
2017-08-14T09:01:57.212Z,42.80
2017-08-14T09:04:24.728Z,41.40
2017-08-14T09:06:52.239Z,40.50
2017-08-14T09:09:19.796Z,40.80
2017-08-14T09:11:47.308Z,39.40
2017-08-14T09:14:15.649Z,40.20
2017-08-14T09:16:43.155Z,40.30
2017-08-14T09:19:11.524Z,40.20
2017-08-14T09:21:39.072Z,40.00
2017-08-14T09:24:06.572Z,40.00
2017-08-14T09:26:34.109Z,40.00
2017-08-14T09:29:01.900Z,40.40
2017-08-14T09:31:33.119Z,39.90
2017-08-14T09:34:01.407Z,38.00
2017-08-14T09:36:28.916Z,38.30
2017-08-14T09:38:56.939Z,39.20
2017-08-14T09:41:24.451Z,36.30
2017-08-14T09:43:52.008Z,36.90
2017-08-14T09:46:22.854Z,35.60
2017-08-14T09:48:50.559Z,36.60
2017-08-14T09:51:18.892Z,39.70
2017-08-14T09:53:46.459Z,39.60
2017-08-14T09:56:14.816Z,38.20
2017-08-14T09:58:42.327Z,37.70
2017-08-14T10:01:09.960Z,37.50
2017-08-14T10:03:37.943Z,39.20
2017-08-14T10:06:05.453Z,39.60
2017-08-14T10:08:33.014Z,38.30
2017-08-14T10:11:00.635Z,37.90
2017-08-14T10:13:28.155Z,34.90
2017-08-14T10:15:56.943Z,34.10
2017-08-14T10:18:24.536Z,35.10
2017-08-14T10:20:52.048Z,34.70
2017-08-14T10:23:19.589Z,33.50
2017-08-14T10:25:47.159Z,34.20
2017-08-14T10:28:14.707Z,34.90
2017-08-14T10:30:42.244Z,34.00
2017-08-14T10:33:12.728Z,34.00
2017-08-14T10:35:40.262Z,33.80
2017-08-14T10:38:07.811Z,32.90
2017-08-14T10:40:35.351Z,32.30
2017-08-14T10:43:02.854Z,36.00
2017-08-14T10:45:30.410Z,37.90
2017-08-14T10:47:57.959Z,35.60
2017-08-14T10:50:25.601Z,33.60
2017-08-14T10:52:53.906Z,31.70
2017-08-14T10:55:21.520Z,31.80
2017-08-14T10:57:49.064Z,33.10
2017-08-14T11:00:16.635Z,31.70
2017-08-14T11:02:44.184Z,31.50
2017-08-14T11:05:11.760Z,32.00
2017-08-14T11:07:39.334Z,34.20
2017-08-14T11:10:07.742Z,36.70
2017-08-14T11:12:36.020Z,32.60
2017-08-14T11:15:03.552Z,32.60
2017-08-14T11:17:31.663Z,31.80
2017-08-14T11:20:00.111Z,33.80
2017-08-14T11:22:27.635Z,31.40
2017-08-14T11:24:55.152Z,31.60
2017-08-14T11:27:22.683Z,31.60
2017-08-14T11:29:50.740Z,28.90
2017-08-14T11:32:20.839Z,29.00
2017-08-14T11:34:49.235Z,29.80
2017-08-14T11:37:17.019Z,29.10
2017-08-14T11:39:44.532Z,29.30
2017-08-14T11:42:12.075Z,30.00
2017-08-14T11:44:39.608Z,29.30
2017-08-14T11:47:07.817Z,28.00
2017-08-14T11:49:35.318Z,29.70
2017-08-14T11:52:02.844Z,30.30
2017-08-14T11:54:30.368Z,30.30
2017-08-14T11:56:57.928Z,33.00
2017-08-14T11:59:25.449Z,32.00
2017-08-14T12:01:53.007Z,35.50
2017-08-14T12:04:24.051Z,36.60
2017-08-14T12:06:51.567Z,33.40
2017-08-14T12:09:19.132Z,33.80
2017-08-14T12:11:46.660Z,35.10
2017-08-14T12:14:14.193Z,31.10
2017-08-14T12:16:41.703Z,32.30
2017-08-14T12:19:10.045Z,31.30
2017-08-14T12:21:37.605Z,31.30
2017-08-14T12:24:05.127Z,32.60
2017-08-14T12:26:32.639Z,33.60
2017-08-14T12:29:00.202Z,31.80
2017-08-14T12:31:28.627Z,32.20
2017-08-14T12:33:56.128Z,32.30
2017-08-14T12:36:31.443Z,33.70
2017-08-14T12:38:58.964Z,30.90
2017-08-14T12:41:27.247Z,31.50
2017-08-14T12:43:54.748Z,31.40
2017-08-14T12:46:22.267Z,32.40
2017-08-14T12:48:53.338Z,33.70
2017-08-14T12:51:20.859Z,34.10
2017-08-14T12:53:48.415Z,33.60
2017-08-14T12:56:15.932Z,34.20
2017-08-14T12:58:43.456Z,35.50
2017-08-14T13:01:11.011Z,38.50
2017-08-14T13:03:39.183Z,35.50
2017-08-14T13:06:06.769Z,36.70
2017-08-14T13:08:34.279Z,36.10
2017-08-14T13:11:01.775Z,37.90
2017-08-14T13:13:29.477Z,36.80
2017-08-14T13:15:56.983Z,37.70
2017-08-14T13:18:24.658Z,40.20
2017-08-14T13:20:59.663Z,38.50
2017-08-14T13:23:27.246Z,38.60
2017-08-14T13:25:56.621Z,39.60
2017-08-14T13:28:24.145Z,39.90
2017-08-14T13:30:51.694Z,38.10
2017-08-14T13:33:19.272Z,38.30
2017-08-14T13:35:46.888Z,38.40
2017-08-14T13:38:14.423Z,37.80
2017-08-14T13:40:41.936Z,41.00
2017-08-14T13:43:10.187Z,39.30
2017-08-14T13:45:37.736Z,39.40
2017-08-14T13:48:05.939Z,38.60
2017-08-14T13:50:36.712Z,40.50
2017-08-14T13:53:04.285Z,40.30
2017-08-14T13:55:35.255Z,41.40
2017-08-14T13:58:02.776Z,42.50
2017-08-14T14:00:30.407Z,40.50
2017-08-14T14:02:57.927Z,39.20
2017-08-14T14:05:25.489Z,41.20
2017-08-14T14:07:53.795Z,41.30
2017-08-14T14:10:24.227Z,41.30
2017-08-14T14:12:51.792Z,42.00
2017-08-14T14:15:19.299Z,40.80
2017-08-14T14:17:46.863Z,42.10
2017-08-14T14:20:14.388Z,41.10
2017-08-14T14:22:45.019Z,42.50
2017-08-14T14:25:12.559Z,42.00
2017-08-14T14:27:40.100Z,42.00
2017-08-14T14:30:07.648Z,42.50
2017-08-14T14:32:35.265Z,42.20
2017-08-14T14:35:02.810Z,44.10
2017-08-14T14:37:30.334Z,43.50
2017-08-14T14:39:57.904Z,43.90
2017-08-14T14:42:25.456Z,44.40
2017-08-14T14:44:52.991Z,43.90
2017-08-14T14:47:20.799Z,42.20
2017-08-14T14:49:48.872Z,42.80
2017-08-14T14:52:16.416Z,42.70
2017-08-14T14:54:44.733Z,42.10
2017-08-14T14:57:13.418Z,42.00
2017-08-14T14:59:40.932Z,41.30
2017-08-14T15:02:09.995Z,41.70
2017-08-14T15:04:38.610Z,41.70
2017-08-14T15:07:06.221Z,42.00
2017-08-14T15:09:33.728Z,42.60
2017-08-14T15:12:01.268Z,42.40
2017-08-14T15:14:28.810Z,42.40
2017-08-14T15:17:00.316Z,42.20
2017-08-14T15:19:28.909Z,41.30
2017-08-14T15:21:56.475Z,41.80
2017-08-14T15:24:24.064Z,41.70
2017-08-14T15:26:51.571Z,41.80
2017-08-14T15:29:20.795Z,42.70
2017-08-14T15:31:48.303Z,43.00
2017-08-14T15:34:15.823Z,42.80
2017-08-14T15:36:43.380Z,46.40
2017-08-14T15:39:10.923Z,44.40
2017-08-14T15:41:38.428Z,47.10
2017-08-14T15:44:05.951Z,44.10
2017-08-14T15:46:33.452Z,45.60
2017-08-14T15:49:01.000Z,46.00
2017-08-14T15:51:29.035Z,45.40
2017-08-14T15:53:56.572Z,47.10
2017-08-14T15:56:24.070Z,47.10
2017-08-14T15:58:51.608Z,47.50
2017-08-14T16:01:19.925Z,46.60
2017-08-14T16:03:47.423Z,46.60
2017-08-14T16:06:14.931Z,46.80
2017-08-14T16:08:42.427Z,49.40
2017-08-14T16:11:10.804Z,48.50
2017-08-14T16:13:38.366Z,48.00
2017-08-14T16:16:05.921Z,48.30
2017-08-14T16:18:33.443Z,48.80
2017-08-14T16:21:01.050Z,47.90
2017-08-14T16:23:28.568Z,49.10
2017-08-14T16:25:56.112Z,47.70
2017-08-14T16:28:24.436Z,49.10
2017-08-14T16:30:51.928Z,49.00
2017-08-14T16:33:19.451Z,48.00
2017-08-14T16:35:46.966Z,47.20
2017-08-14T16:38:17.542Z,47.00
2017-08-14T16:40:45.045Z,49.00
2017-08-14T16:43:12.584Z,47.40
2017-08-14T16:45:40.094Z,48.00
2017-08-14T16:48:07.914Z,47.60
2017-08-14T16:50:35.505Z,48.10
2017-08-14T16:53:03.052Z,47.70
2017-08-14T16:55:30.607Z,46.80
2017-08-14T16:57:58.135Z,47.00
2017-08-14T17:00:25.677Z,47.20
2017-08-14T17:02:53.620Z,47.70
2017-08-14T17:05:21.123Z,46.60
2017-08-14T17:07:48.628Z,47.70
2017-08-14T17:10:16.127Z,48.40
2017-08-14T17:12:43.679Z,47.10
2017-08-14T17:15:11.180Z,49.10
2017-08-14T17:17:39.057Z,47.30
2017-08-14T17:20:06.568Z,47.90
2017-08-14T17:22:37.888Z,47.60
2017-08-14T17:25:06.344Z,48.30
2017-08-14T17:27:34.001Z,48.30
2017-08-14T17:30:01.563Z,48.00
2017-08-14T17:32:29.076Z,48.50
2017-08-14T17:34:56.585Z,48.90
2017-08-14T17:37:24.106Z,48.60
2017-08-14T17:39:51.612Z,48.60
2017-08-14T17:42:19.147Z,49.00
2017-08-14T17:44:46.676Z,49.20
2017-08-14T17:47:14.194Z,49.60
2017-08-14T17:49:42.503Z,49.90
2017-08-14T17:52:10.059Z,50.00
2017-08-14T17:54:37.557Z,50.20
2017-08-14T17:57:05.060Z,50.30
2017-08-14T17:59:32.573Z,50.80
2017-08-14T18:02:00.072Z,50.60
2017-08-14T18:04:27.597Z,51.30
2017-08-14T18:06:55.128Z,51.30
2017-08-14T18:09:22.635Z,51.70
2017-08-14T18:11:53.642Z,52.00
2017-08-14T18:14:21.148Z,52.50
2017-08-14T18:16:48.653Z,52.70
2017-08-14T18:19:16.165Z,53.20
2017-08-14T18:21:43.752Z,53.50
2017-08-14T18:24:14.867Z,53.60
2017-08-14T18:26:47.001Z,54.40
2017-08-14T18:29:14.570Z,54.40
2017-08-14T18:31:42.080Z,55.20
2017-08-14T18:34:10.200Z,55.50
2017-08-14T18:36:37.704Z,55.60
2017-08-14T18:39:05.410Z,55.80
2017-08-14T18:41:32.929Z,56.20
2017-08-14T18:44:00.475Z,56.50
2017-08-14T18:46:28.024Z,57.30
2017-08-14T18:48:56.251Z,57.10
2017-08-14T18:51:23.783Z,57.50
2017-08-14T18:53:52.112Z,58.70
2017-08-14T18:56:19.620Z,58.30
2017-08-14T18:58:47.993Z,59.00
2017-08-14T19:01:16.279Z,60.00
2017-08-14T19:03:43.820Z,59.20
2017-08-14T19:06:11.421Z,59.80
2017-08-14T19:08:40.908Z,60.30
2017-08-14T19:11:07.024Z,60.90
2017-08-14T19:13:34.552Z,60.80
2017-08-14T19:16:02.127Z,62.00
2017-08-14T19:18:29.628Z,62.50
2017-08-14T19:20:57.157Z,62.00
2017-08-14T19:23:24.682Z,61.60
2017-08-14T19:25:56.784Z,62.30
2017-08-14T19:28:24.300Z,62.20
2017-08-14T19:30:51.836Z,66.60
2017-08-14T19:33:19.364Z,64.30
2017-08-14T19:35:46.913Z,66.70
2017-08-14T19:38:14.413Z,66.20
2017-08-14T19:40:46.503Z,69.20
2017-08-14T19:43:17.228Z,69.80
2017-08-14T19:45:44.744Z,69.90
2017-08-14T19:48:12.276Z,69.40
2017-08-14T19:50:39.819Z,71.10
2017-08-14T19:53:07.327Z,74.10
2017-08-14T19:55:39.853Z,74.30
2017-08-14T19:58:07.846Z,69.30
2017-08-14T20:00:35.857Z,72.80
2017-08-14T20:03:04.368Z,73.00
2017-08-14T20:05:31.888Z,70.60
2017-08-14T20:07:59.482Z,74.70
2017-08-14T20:10:27.012Z,67.90
2017-08-14T20:12:55.300Z,71.50
2017-08-14T20:15:22.836Z,71.10
2017-08-14T20:17:50.336Z,73.50
2017-08-14T20:20:17.839Z,76.30
2017-08-14T20:22:45.764Z,77.70
2017-08-14T20:25:13.318Z,78.20
2017-08-14T20:27:40.823Z,78.90
2017-08-14T20:30:08.400Z,79.90
2017-08-14T20:32:36.743Z,80.40
2017-08-14T20:35:04.249Z,80.80
2017-08-14T20:37:31.868Z,80.80
2017-08-14T20:39:59.568Z,80.40
2017-08-14T20:42:31.639Z,80.10
2017-08-14T20:44:59.618Z,78.40
2017-08-14T20:47:27.132Z,80.60
2017-08-14T20:49:54.655Z,81.20
2017-08-14T20:52:22.924Z,80.80
2017-08-14T20:54:50.489Z,80.70
2017-08-14T20:57:22.436Z,82.30
2017-08-14T20:59:49.945Z,82.10
2017-08-14T21:02:17.466Z,82.40
2017-08-14T21:04:45.799Z,83.40
2017-08-14T21:07:13.311Z,83.10
2017-08-14T21:09:40.854Z,82.30
2017-08-14T21:12:08.381Z,83.40
2017-08-14T21:14:36.025Z,83.30
2017-08-14T21:17:04.116Z,83.30
2017-08-14T21:19:31.618Z,83.30
2017-08-14T21:21:59.165Z,83.80
2017-08-14T21:24:26.715Z,84.00
2017-08-14T21:26:58.559Z,83.20
2017-08-14T21:29:26.115Z,83.60
2017-08-14T21:31:53.639Z,83.70
2017-08-14T21:34:21.154Z,83.90
2017-08-14T21:36:48.728Z,83.80
2017-08-14T21:39:16.228Z,84.00
2017-08-14T21:41:43.765Z,83.50
2017-08-14T21:44:11.341Z,83.70
2017-08-14T21:46:39.919Z,84.20
2017-08-14T21:49:07.447Z,84.20
2017-08-14T21:51:34.946Z,84.00
2017-08-14T21:54:02.497Z,84.10
2017-08-14T21:56:30.005Z,84.20
2017-08-14T21:58:58.168Z,84.60
2017-08-14T22:01:25.692Z,84.70
2017-08-14T22:03:53.445Z,85.70
2017-08-14T22:06:21.768Z,86.30
2017-08-14T22:08:49.280Z,86.20
2017-08-14T22:11:17.640Z,86.40
2017-08-14T22:13:45.188Z,86.40
2017-08-14T22:16:12.750Z,86.90
2017-08-14T22:18:40.337Z,86.70
2017-08-14T22:21:08.667Z,86.90
2017-08-14T22:23:37.524Z,86.60
2017-08-14T22:26:05.092Z,86.80
2017-08-14T22:28:32.618Z,87.10
2017-08-14T22:31:00.177Z,87.50
2017-08-14T22:33:28.828Z,87.30
2017-08-14T22:35:56.389Z,87.40
2017-08-14T22:38:23.961Z,87.10
2017-08-14T22:40:51.472Z,87.20
2017-08-14T22:43:22.245Z,86.80
2017-08-14T22:45:51.593Z,86.80
2017-08-14T22:48:20.824Z,87.20
2017-08-14T22:50:48.345Z,87.10
2017-08-14T22:53:16.516Z,86.80
2017-08-14T22:55:44.474Z,86.90
2017-08-14T22:58:12.029Z,87.50
2017-08-14T23:00:39.596Z,87.50
2017-08-14T23:03:07.133Z,86.50
2017-08-14T23:05:34.681Z,85.80
2017-08-14T23:08:02.216Z,84.40
2017-08-14T23:10:29.713Z,85.60
2017-08-14T23:12:57.272Z,86.10
2017-08-14T23:15:24.784Z,86.70
2017-08-14T23:17:53.883Z,85.40
2017-08-14T23:20:21.944Z,85.40
2017-08-14T23:22:49.449Z,84.90
2017-08-14T23:25:16.971Z,86.60
2017-08-14T23:27:44.484Z,86.50
2017-08-14T23:30:12.021Z,87.30
2017-08-14T23:32:39.560Z,87.30
2017-08-14T23:35:07.108Z,86.60
2017-08-14T23:37:34.795Z,87.80
2017-08-14T23:40:02.305Z,87.90
2017-08-14T23:42:29.813Z,88.10
2017-08-14T23:44:57.367Z,88.30
2017-08-14T23:47:25.016Z,88.40
2017-08-14T23:49:52.544Z,88.50
2017-08-14T23:52:20.047Z,88.60
2017-08-14T23:54:47.564Z,88.40
2017-08-14T23:57:15.108Z,88.30
2017-08-14T23:59:42.624Z,88.40
